sensor_id;sensor_type;location;lat;lon;timestamp;pressure;altitude;pressure_sealevel;temperature;humidity
27210;BME280;14721;42.668;23.386;2023-05-10T00:01:42;95589.53;;;8.84;100.00
27210;BME280;14721;42.668;23.386;2023-05-10T00:04:07;95594.78;;;8.86;100.00
27210;BME280;14721;42.668;23.386;2023-05-10T00:06:33;95585.28;;;8.82;100.00
27210;BME280;14721;42.668;23.386;2023-05-10T00:08:58;95593.56;;;8.77;100.00
27210;BME280;14721;42.668;23.386;2023-05-10T00:11:25;95593.47;;;8.79;100.00
27210;BME280;14721;42.668;23.386;2023-05-10T00:13:50;95583.78;;;8.78;100.00
27210;BME280;14721;42.668;23.386;2023-05-10T00:16:16;95577.78;;;8.74;100.00
27210;BME280;14721;42.668;23.386;2023-05-10T00:18:42;95583.19;;;8.73;100.00
27210;BME280;14721;42.668;23.386;2023-05-10T00:21:07;95584.91;;;8.74;100.00
27210;BME280;14721;42.668;23.386;2023-05-10T00:23:33;95575.41;;;8.70;100.00
27210;BME280;14721;42.668;23.386;2023-05-10T00:25:59;95587.94;;;8.68;100.00
27210;BME280;14721;42.668;23.386;2023-05-10T00:28:24;95580.91;;;8.67;100.00
27210;BME280;14721;42.668;23.386;2023-05-10T00:30:50;95575.50;;;8.68;100.00
27210;BME280;14721;42.668;23.386;2023-05-10T00:33:15;95558.09;;;8.63;100.00
27210;BME280;14721;42.668;23.386;2023-05-10T00:35:41;95579.59;;;8.60;100.00
27210;BME280;14721;42.668;23.386;2023-05-10T00:38:06;95581.41;;;8.59;100.00
27210;BME280;14721;42.668;23.386;2023-05-10T00:40:32;95563.63;;;8.60;100.00
27210;BME280;14721;42.668;23.386;2023-05-10T00:42:58;95571.22;;;8.66;100.00
27210;BME280;14721;42.668;23.386;2023-05-10T00:45:27;95573.13;;;8.64;100.00
27210;BME280;14721;42.668;23.386;2023-05-10T00:47:53;95564.34;;;8.62;100.00
27210;BME280;14721;42.668;23.386;2023-05-10T00:50:23;95574.91;;;8.63;100.00
27210;BME280;14721;42.668;23.386;2023-05-10T00:52:49;95568.94;;;8.60;100.00
27210;BME280;14721;42.668;23.386;2023-05-10T00:55:15;95569.69;;;8.62;100.00
27210;BME280;14721;42.668;23.386;2023-05-10T00:57:40;95560.09;;;8.59;100.00
27210;BME280;14721;42.668;23.386;2023-05-10T01:00:07;95565.50;;;8.58;100.00
27210;BME280;14721;42.668;23.386;2023-05-10T01:02:34;95560.66;;;8.50;100.00
27210;BME280;14721;42.668;23.386;2023-05-10T01:05:02;95564.00;;;8.54;100.00
27210;BME280;14721;42.668;23.386;2023-05-10T01:07:29;95558.28;;;8.46;100.00
27210;BME280;14721;42.668;23.386;2023-05-10T01:09:57;95561.34;;;8.54;100.00
27210;BME280;14721;42.668;23.386;2023-05-10T01:12:23;95557.72;;;8.55;100.00
27210;BME280;14721;42.668;23.386;2023-05-10T01:14:49;95564.38;;;8.48;100.00
27210;BME280;14721;42.668;23.386;2023-05-10T01:17:15;95564.84;;;8.40;100.00
27210;BME280;14721;42.668;23.386;2023-05-10T01:19:41;95550.28;;;8.32;100.00
27210;BME280;14721;42.668;23.386;2023-05-10T01:31:12;95553.63;;;8.35;100.00
27210;BME280;14721;42.668;23.386;2023-05-10T01:33:55;95549.75;;;8.27;100.00
27210;BME280;14721;42.668;23.386;2023-05-10T01:39:25;95535.75;;;8.23;100.00
27210;BME280;14721;42.668;23.386;2023-05-10T01:42:07;95547.25;;;8.38;100.00
27210;BME280;14721;42.668;23.386;2023-05-10T01:49:55;95538.75;;;8.17;100.00
27210;BME280;14721;42.668;23.386;2023-05-10T01:52:30;95542.09;;;8.21;100.00
27210;BME280;14721;42.668;23.386;2023-05-10T01:55:04;95537.16;;;8.15;100.00
27210;BME280;14721;42.668;23.386;2023-05-10T01:57:35;95531.34;;;8.08;100.00
27210;BME280;14721;42.668;23.386;2023-05-10T02:00:06;95538.25;;;8.11;100.00
27210;BME280;14721;42.668;23.386;2023-05-10T02:02:37;95535.59;;;8.11;100.00
27210;BME280;14721;42.668;23.386;2023-05-10T02:05:06;95531.44;;;8.07;100.00
27210;BME280;14721;42.668;23.386;2023-05-10T02:07:34;95539.13;;;8.11;100.00
27210;BME280;14721;42.668;23.386;2023-05-10T02:10:02;95538.06;;;8.14;100.00
27210;BME280;14721;42.668;23.386;2023-05-10T02:12:42;95549.97;;;8.08;100.00
27210;BME280;14721;42.668;23.386;2023-05-10T02:15:10;95549.69;;;8.13;100.00
27210;BME280;14721;42.668;23.386;2023-05-10T02:17:37;95547.97;;;8.12;100.00
27210;BME280;14721;42.668;23.386;2023-05-10T02:20:05;95545.69;;;8.20;100.00
27210;BME280;14721;42.668;23.386;2023-05-10T02:22:32;95548.91;;;8.11;100.00
27210;BME280;14721;42.668;23.386;2023-05-10T02:24:59;95553.69;;;8.06;100.00
27210;BME280;14721;42.668;23.386;2023-05-10T02:27:27;95558.81;;;8.09;100.00
27210;BME280;14721;42.668;23.386;2023-05-10T02:29:54;95563.63;;;8.02;100.00
27210;BME280;14721;42.668;23.386;2023-05-10T02:32:21;95558.31;;;8.02;100.00
27210;BME280;14721;42.668;23.386;2023-05-10T02:34:49;95560.47;;;7.96;100.00
27210;BME280;14721;42.668;23.386;2023-05-10T02:37:19;95558.19;;;7.76;100.00
27210;BME280;14721;42.668;23.386;2023-05-10T02:39:47;95556.44;;;7.74;100.00
27210;BME280;14721;42.668;23.386;2023-05-10T02:42:16;95570.31;;;7.65;100.00
27210;BME280;14721;42.668;23.386;2023-05-10T02:44:48;95554.56;;;7.62;100.00
27210;BME280;14721;42.668;23.386;2023-05-10T02:47:18;95558.13;;;7.61;100.00
27210;BME280;14721;42.668;23.386;2023-05-10T02:49:44;95564.78;;;7.54;100.00
27210;BME280;14721;42.668;23.386;2023-05-10T02:52:10;95537.94;;;7.43;100.00
27210;BME280;14721;42.668;23.386;2023-05-10T02:54:47;95557.41;;;7.44;100.00
27210;BME280;14721;42.668;23.386;2023-05-10T02:57:24;95549.53;;;7.42;100.00
27210;BME280;14721;42.668;23.386;2023-05-10T02:59:50;95553.16;;;7.41;100.00
27210;BME280;14721;42.668;23.386;2023-05-10T03:02:16;95561.69;;;7.46;100.00
27210;BME280;14721;42.668;23.386;2023-05-10T03:04:41;95554.16;;;7.39;100.00
27210;BME280;14721;42.668;23.386;2023-05-10T03:07:07;95550.13;;;7.47;100.00
27210;BME280;14721;42.668;23.386;2023-05-10T03:09:33;95552.88;;;7.46;100.00
27210;BME280;14721;42.668;23.386;2023-05-10T03:12:41;95558.38;;;7.43;100.00
27210;BME280;14721;42.668;23.386;2023-05-10T03:18:16;95562.13;;;7.39;100.00
27210;BME280;14721;42.668;23.386;2023-05-10T03:20:51;95564.69;;;7.40;100.00
27210;BME280;14721;42.668;23.386;2023-05-10T03:25:55;95576.72;;;7.47;100.00
27210;BME280;14721;42.668;23.386;2023-05-10T03:28:21;95574.63;;;7.52;100.00
27210;BME280;14721;42.668;23.386;2023-05-10T03:30:47;95568.13;;;7.58;100.00
27210;BME280;14721;42.668;23.386;2023-05-10T03:33:17;95575.91;;;7.61;100.00
27210;BME280;14721;42.668;23.386;2023-05-10T03:35:59;95566.69;;;7.66;100.00
27210;BME280;14721;42.668;23.386;2023-05-10T03:38:25;95575.47;;;7.68;100.00
27210;BME280;14721;42.668;23.386;2023-05-10T03:40:50;95570.16;;;7.68;100.00
27210;BME280;14721;42.668;23.386;2023-05-10T03:43:16;95567.41;;;7.70;100.00
27210;BME280;14721;42.668;23.386;2023-05-10T03:45:41;95568.22;;;7.70;100.00
27210;BME280;14721;42.668;23.386;2023-05-10T03:48:07;95571.84;;;7.69;99.98
27210;BME280;14721;42.668;23.386;2023-05-10T03:50:32;95576.56;;;7.64;99.83
27210;BME280;14721;42.668;23.386;2023-05-10T03:52:58;95570.06;;;7.70;98.96
27210;BME280;14721;42.668;23.386;2023-05-10T03:55:30;95570.31;;;7.65;99.54
27210;BME280;14721;42.668;23.386;2023-05-10T03:58:02;95584.38;;;7.67;99.89
27210;BME280;14721;42.668;23.386;2023-05-10T04:00:27;95578.13;;;7.68;99.46
27210;BME280;14721;42.668;23.386;2023-05-10T04:02:53;95573.53;;;7.70;99.77
27210;BME280;14721;42.668;23.386;2023-05-10T04:05:18;95575.47;;;7.68;99.82
27210;BME280;14721;42.668;23.386;2023-05-10T04:07:44;95588.38;;;7.74;99.28
27210;BME280;14721;42.668;23.386;2023-05-10T04:10:10;95586.94;;;7.69;100.00
27210;BME280;14721;42.668;23.386;2023-05-10T04:12:36;95595.00;;;7.67;100.00
27210;BME280;14721;42.668;23.386;2023-05-10T04:15:02;95588.84;;;7.67;100.00
27210;BME280;14721;42.668;23.386;2023-05-10T04:17:27;95581.72;;;7.67;100.00
27210;BME280;14721;42.668;23.386;2023-05-10T04:19:53;95585.41;;;7.65;100.00
27210;BME280;14721;42.668;23.386;2023-05-10T04:22:20;95585.50;;;7.63;100.00
27210;BME280;14721;42.668;23.386;2023-05-10T04:24:45;95591.88;;;7.61;100.00
27210;BME280;14721;42.668;23.386;2023-05-10T04:27:11;95588.34;;;7.60;100.00
27210;BME280;14721;42.668;23.386;2023-05-10T04:29:36;95590.13;;;7.60;100.00
27210;BME280;14721;42.668;23.386;2023-05-10T04:32:03;95580.28;;;7.62;100.00
27210;BME280;14721;42.668;23.386;2023-05-10T04:34:29;95600.81;;;7.74;100.00
27210;BME280;14721;42.668;23.386;2023-05-10T04:36:54;95588.97;;;7.80;100.00
27210;BME280;14721;42.668;23.386;2023-05-10T04:39:20;95599.78;;;7.77;99.67
27210;BME280;14721;42.668;23.386;2023-05-10T04:41:46;95583.13;;;7.73;98.20
27210;BME280;14721;42.668;23.386;2023-05-10T04:44:11;95594.72;;;7.72;98.06
27210;BME280;14721;42.668;23.386;2023-05-10T04:46:37;95585.72;;;7.74;97.58
27210;BME280;14721;42.668;23.386;2023-05-10T04:49:02;95594.66;;;7.73;98.35
27210;BME280;14721;42.668;23.386;2023-05-10T04:51:28;95595.16;;;7.80;98.59
27210;BME280;14721;42.668;23.386;2023-05-10T04:53:53;95595.25;;;7.79;98.33
27210;BME280;14721;42.668;23.386;2023-05-10T04:56:19;95587.91;;;7.82;98.40
27210;BME280;14721;42.668;23.386;2023-05-10T04:58:44;95582.50;;;7.84;98.25
27210;BME280;14721;42.668;23.386;2023-05-10T05:01:12;95590.13;;;7.90;98.03
27210;BME280;14721;42.668;23.386;2023-05-10T05:03:37;95592.59;;;7.93;97.74
27210;BME280;14721;42.668;23.386;2023-05-10T05:06:03;95585.22;;;7.98;98.35
27210;BME280;14721;42.668;23.386;2023-05-10T05:08:29;95596.72;;;7.98;98.58
27210;BME280;14721;42.668;23.386;2023-05-10T05:10:54;95589.00;;;8.08;98.38
27210;BME280;14721;42.668;23.386;2023-05-10T05:13:20;95588.09;;;8.09;97.95
27210;BME280;14721;42.668;23.386;2023-05-10T05:15:45;95602.22;;;8.09;98.62
27210;BME280;14721;42.668;23.386;2023-05-10T05:18:11;95588.91;;;8.09;98.24
27210;BME280;14721;42.668;23.386;2023-05-10T05:20:36;95602.13;;;8.11;97.80
27210;BME280;14721;42.668;23.386;2023-05-10T05:23:29;95602.22;;;8.09;98.13
27210;BME280;14721;42.668;23.386;2023-05-10T05:25:55;95603.00;;;8.11;97.92
27210;BME280;14721;42.668;23.386;2023-05-10T05:28:20;95607.63;;;8.08;98.10
27210;BME280;14721;42.668;23.386;2023-05-10T05:30:46;95601.31;;;8.10;97.75
27210;BME280;14721;42.668;23.386;2023-05-10T05:33:13;95607.00;;;8.18;97.24
27210;BME280;14721;42.668;23.386;2023-05-10T05:35:40;95606.91;;;8.20;97.05
27210;BME280;14721;42.668;23.386;2023-05-10T05:38:06;95611.41;;;8.19;97.34
27210;BME280;14721;42.668;23.386;2023-05-10T05:40:32;95612.94;;;8.23;97.44
27210;BME280;14721;42.668;23.386;2023-05-10T05:42:59;95620.41;;;8.17;97.50
27210;BME280;14721;42.668;23.386;2023-05-10T05:45:24;95609.00;;;8.15;96.98
27210;BME280;14721;42.668;23.386;2023-05-10T05:47:49;95610.34;;;8.22;97.49
27210;BME280;14721;42.668;23.386;2023-05-10T05:50:15;95615.25;;;8.14;98.18
27210;BME280;14721;42.668;23.386;2023-05-10T05:52:41;95607.97;;;8.17;98.57
27210;BME280;14721;42.668;23.386;2023-05-10T05:55:06;95621.03;;;8.06;99.25
27210;BME280;14721;42.668;23.386;2023-05-10T05:57:32;95616.94;;;8.01;100.00
27210;BME280;14721;42.668;23.386;2023-05-10T06:00:00;95621.69;;;7.96;100.00
27210;BME280;14721;42.668;23.386;2023-05-10T06:02:25;95623.13;;;8.01;100.00
27210;BME280;14721;42.668;23.386;2023-05-10T06:04:51;95626.00;;;8.12;100.00
27210;BME280;14721;42.668;23.386;2023-05-10T06:07:16;95620.84;;;8.09;100.00
27210;BME280;14721;42.668;23.386;2023-05-10T06:09:45;95610.13;;;8.11;100.00
27210;BME280;14721;42.668;23.386;2023-05-10T06:12:10;95620.84;;;8.09;100.00
27210;BME280;14721;42.668;23.386;2023-05-10T06:14:36;95631.50;;;8.09;100.00
27210;BME280;14721;42.668;23.386;2023-05-10T06:17:02;95626.28;;;8.08;99.95
27210;BME280;14721;42.668;23.386;2023-05-10T06:19:30;95625.81;;;8.01;99.40
27210;BME280;14721;42.668;23.386;2023-05-10T06:21:55;95630.47;;;8.12;99.21
27210;BME280;14721;42.668;23.386;2023-05-10T06:24:21;95632.09;;;8.14;98.96
27210;BME280;14721;42.668;23.386;2023-05-10T06:26:46;95630.72;;;8.23;99.74
27210;BME280;14721;42.668;23.386;2023-05-10T06:29:12;95634.91;;;8.27;98.24
27210;BME280;14721;42.668;23.386;2023-05-10T06:31:37;95641.56;;;8.34;96.53
27210;BME280;14721;42.668;23.386;2023-05-10T06:34:03;95637.50;;;8.42;95.68
27210;BME280;14721;42.668;23.386;2023-05-10T06:36:28;95640.38;;;8.53;95.60
27210;BME280;14721;42.668;23.386;2023-05-10T06:38:54;95641.59;;;8.48;94.59
27210;BME280;14721;42.668;23.386;2023-05-10T06:41:20;95637.50;;;8.56;94.67
27210;BME280;14721;42.668;23.386;2023-05-10T06:43:46;95637.41;;;8.58;94.19
27210;BME280;14721;42.668;23.386;2023-05-10T06:46:11;95633.59;;;8.62;94.10
27210;BME280;14721;42.668;23.386;2023-05-10T06:48:36;95636.28;;;8.62;93.21
27210;BME280;14721;42.668;23.386;2023-05-10T06:51:02;95626.97;;;8.69;93.98
27210;BME280;14721;42.668;23.386;2023-05-10T06:53:28;95637.25;;;8.75;93.56
27210;BME280;14721;42.668;23.386;2023-05-10T06:55:53;95631.25;;;8.71;93.56
27210;BME280;14721;42.668;23.386;2023-05-10T06:58:18;95630.75;;;8.79;92.22
27210;BME280;14721;42.668;23.386;2023-05-10T07:00:44;95631.78;;;8.90;90.82
27210;BME280;14721;42.668;23.386;2023-05-10T07:03:10;95633.03;;;8.85;90.41
27210;BME280;14721;42.668;23.386;2023-05-10T07:05:36;95644.28;;;8.90;90.23
27210;BME280;14721;42.668;23.386;2023-05-10T07:08:01;95635.72;;;8.99;89.36
27210;BME280;14721;42.668;23.386;2023-05-10T07:10:27;95645.03;;;8.92;89.80
27210;BME280;14721;42.668;23.386;2023-05-10T07:12:52;95649.69;;;9.02;90.16
27210;BME280;14721;42.668;23.386;2023-05-10T07:15:18;95640.47;;;9.08;89.41
27210;BME280;14721;42.668;23.386;2023-05-10T07:17:43;95645.31;;;9.15;89.20
27210;BME280;14721;42.668;23.386;2023-05-10T07:20:09;95641.78;;;9.15;89.40
27210;BME280;14721;42.668;23.386;2023-05-10T07:22:35;95647.19;;;9.27;89.67
27210;BME280;14721;42.668;23.386;2023-05-10T07:25:00;95657.75;;;9.29;88.42
27210;BME280;14721;42.668;23.386;2023-05-10T07:27:26;95654.13;;;9.30;86.55
27210;BME280;14721;42.668;23.386;2023-05-10T07:29:52;95655.53;;;9.35;86.31
27210;BME280;14721;42.668;23.386;2023-05-10T07:32:20;95645.13;;;9.45;86.55
27210;BME280;14721;42.668;23.386;2023-05-10T07:34:45;95653.31;;;9.56;86.35
27210;BME280;14721;42.668;23.386;2023-05-10T07:37:11;95653.34;;;9.69;85.74
27210;BME280;14721;42.668;23.386;2023-05-10T07:39:36;95671.78;;;9.59;84.29
27210;BME280;14721;42.668;23.386;2023-05-10T07:42:02;95657.78;;;9.55;84.11
27210;BME280;14721;42.668;23.386;2023-05-10T07:44:28;95664.47;;;9.48;84.54
27210;BME280;14721;42.668;23.386;2023-05-10T07:46:53;95665.91;;;9.40;84.51
27210;BME280;14721;42.668;23.386;2023-05-10T07:49:19;95668.03;;;9.35;84.09
27210;BME280;14721;42.668;23.386;2023-05-10T07:51:45;95662.50;;;9.38;83.98
27210;BME280;14721;42.668;23.386;2023-05-10T07:54:10;95666.09;;;9.37;84.25
27210;BME280;14721;42.668;23.386;2023-05-10T07:56:36;95668.56;;;9.40;84.50
27210;BME280;14721;42.668;23.386;2023-05-10T07:59:03;95651.59;;;9.55;84.78
27210;BME280;14721;42.668;23.386;2023-05-10T08:01:33;95659.19;;;9.61;83.40
27210;BME280;14721;42.668;23.386;2023-05-10T08:04:00;95663.69;;;9.61;82.65
27210;BME280;14721;42.668;23.386;2023-05-10T08:06:25;95675.94;;;9.77;82.60
27210;BME280;14721;42.668;23.386;2023-05-10T08:08:57;95661.16;;;9.72;82.47
27210;BME280;14721;42.668;23.386;2023-05-10T08:11:23;95667.25;;;9.74;81.99
27210;BME280;14721;42.668;23.386;2023-05-10T08:13:49;95670.78;;;9.74;82.65
27210;BME280;14721;42.668;23.386;2023-05-10T08:16:16;95675.34;;;9.72;82.65
27210;BME280;14721;42.668;23.386;2023-05-10T08:18:43;95677.97;;;9.59;83.65
27210;BME280;14721;42.668;23.386;2023-05-10T08:21:09;95674.47;;;9.59;83.96
27210;BME280;14721;42.668;23.386;2023-05-10T08:23:36;95667.94;;;9.63;84.78
27210;BME280;14721;42.668;23.386;2023-05-10T08:26:02;95676.56;;;9.81;84.35
27210;BME280;14721;42.668;23.386;2023-05-10T08:28:28;95678.00;;;9.86;83.46
27210;BME280;14721;42.668;23.386;2023-05-10T08:30:53;95676.69;;;10.06;83.31
27210;BME280;14721;42.668;23.386;2023-05-10T08:33:19;95677.59;;;10.19;82.89
27210;BME280;14721;42.668;23.386;2023-05-10T08:35:44;95659.25;;;10.27;82.34
27210;BME280;14721;42.668;23.386;2023-05-10T08:38:10;95682.72;;;10.22;81.68
27210;BME280;14721;42.668;23.386;2023-05-10T08:40:43;95679.75;;;10.00;83.49
27210;BME280;14721;42.668;23.386;2023-05-10T08:43:13;95676.75;;;9.78;85.14
27210;BME280;14721;42.668;23.386;2023-05-10T08:45:42;95675.16;;;9.75;85.92
27210;BME280;14721;42.668;23.386;2023-05-10T08:48:09;95679.34;;;9.79;85.22
27210;BME280;14721;42.668;23.386;2023-05-10T08:50:44;95669.41;;;9.54;85.95
27210;BME280;14721;42.668;23.386;2023-05-10T08:53:11;95667.88;;;9.50;86.41
27210;BME280;14721;42.668;23.386;2023-05-10T08:55:38;95676.56;;;9.54;88.51
27210;BME280;14721;42.668;23.386;2023-05-10T08:58:07;95672.44;;;9.63;88.26
27210;BME280;14721;42.668;23.386;2023-05-10T09:00:34;95675.75;;;9.66;89.88
27210;BME280;14721;42.668;23.386;2023-05-10T09:03:01;95680.22;;;9.66;88.58
27210;BME280;14721;42.668;23.386;2023-05-10T09:05:26;95677.34;;;9.69;89.95
27210;BME280;14721;42.668;23.386;2023-05-10T09:07:52;95678.31;;;9.68;89.00
27210;BME280;14721;42.668;23.386;2023-05-10T09:10:18;95677.25;;;9.70;88.79
27210;BME280;14721;42.668;23.386;2023-05-10T09:12:45;95670.22;;;9.69;89.71
27210;BME280;14721;42.668;23.386;2023-05-10T09:15:11;95670.53;;;9.65;87.90
27210;BME280;14721;42.668;23.386;2023-05-10T09:17:38;95670.03;;;9.72;89.25
27210;BME280;14721;42.668;23.386;2023-05-10T09:20:04;95673.28;;;9.63;87.80
27210;BME280;14721;42.668;23.386;2023-05-10T09:22:30;95667.28;;;9.59;89.67
27210;BME280;14721;42.668;23.386;2023-05-10T09:25:12;95665.84;;;9.68;91.54
27210;BME280;14721;42.668;23.386;2023-05-10T09:27:39;95658.06;;;9.65;91.28
27210;BME280;14721;42.668;23.386;2023-05-10T09:30:05;95667.25;;;9.74;90.95
27210;BME280;14721;42.668;23.386;2023-05-10T09:32:42;95664.19;;;9.80;90.73
27210;BME280;14721;42.668;23.386;2023-05-10T09:35:16;95662.47;;;10.05;89.43
27210;BME280;14721;42.668;23.386;2023-05-10T09:37:44;95652.28;;;10.24;88.85
27210;BME280;14721;42.668;23.386;2023-05-10T09:40:15;95648.78;;;10.36;86.83
27210;BME280;14721;42.668;23.386;2023-05-10T09:45:26;95657.13;;;10.44;82.53
27210;BME280;14721;42.668;23.386;2023-05-10T09:47:52;95656.22;;;10.31;82.95
27210;BME280;14721;42.668;23.386;2023-05-10T09:50:18;95648.13;;;10.33;82.91
27210;BME280;14721;42.668;23.386;2023-05-10T09:52:51;95638.75;;;10.40;82.79
27210;BME280;14721;42.668;23.386;2023-05-10T09:55:38;95646.22;;;10.47;81.75
27210;BME280;14721;42.668;23.386;2023-05-10T09:58:05;95647.75;;;10.64;81.93
27210;BME280;14721;42.668;23.386;2023-05-10T10:00:36;95649.44;;;10.65;80.91
27210;BME280;14721;42.668;23.386;2023-05-10T10:03:03;95636.38;;;10.85;81.03
27210;BME280;14721;42.668;23.386;2023-05-10T10:05:29;95641.84;;;10.84;79.37
27210;BME280;14721;42.668;23.386;2023-05-10T10:07:57;95640.97;;;10.96;78.88
27210;BME280;14721;42.668;23.386;2023-05-10T10:10:24;95637.00;;;11.14;79.32
27210;BME280;14721;42.668;23.386;2023-05-10T10:12:49;95637.00;;;11.26;79.09
27210;BME280;14721;42.668;23.386;2023-05-10T10:15:16;95626.72;;;11.20;78.09
27210;BME280;14721;42.668;23.386;2023-05-10T10:17:43;95619.03;;;11.28;77.29
27210;BME280;14721;42.668;23.386;2023-05-10T10:20:08;95635.44;;;11.48;74.97
27210;BME280;14721;42.668;23.386;2023-05-10T10:22:34;95619.53;;;11.33;76.10
27210;BME280;14721;42.668;23.386;2023-05-10T10:25:00;95625.19;;;11.41;75.07
27210;BME280;14721;42.668;23.386;2023-05-10T10:27:49;95619.75;;;11.67;74.50
27210;BME280;14721;42.668;23.386;2023-05-10T10:30:54;95625.13;;;11.67;75.11
27210;BME280;14721;42.668;23.386;2023-05-10T10:35:58;95621.03;;;11.97;74.61
27210;BME280;14721;42.668;23.386;2023-05-10T10:38:24;95629.69;;;12.01;73.27
27210;BME280;14721;42.668;23.386;2023-05-10T10:41:08;95616.53;;;11.74;73.48
27210;BME280;14721;42.668;23.386;2023-05-10T10:46:18;95628.31;;;11.72;75.60
27210;BME280;14721;42.668;23.386;2023-05-10T10:49:08;95626.56;;;11.83;75.22
27210;BME280;14721;42.668;23.386;2023-05-10T10:51:38;95631.13;;;11.70;74.50
27210;BME280;14721;42.668;23.386;2023-05-10T10:54:10;95621.66;;;11.77;75.89
27210;BME280;14721;42.668;23.386;2023-05-10T10:56:36;95617.13;;;11.90;76.54
27210;BME280;14721;42.668;23.386;2023-05-10T10:59:02;95623.31;;;12.14;75.41
27210;BME280;14721;42.668;23.386;2023-05-10T11:01:33;95626.81;;;12.49;74.19
27210;BME280;14721;42.668;23.386;2023-05-10T11:06:29;95619.31;;;12.65;76.04
27210;BME280;14721;42.668;23.386;2023-05-10T11:08:57;95625.28;;;12.58;73.97
27210;BME280;14721;42.668;23.386;2023-05-10T11:11:22;95617.84;;;12.72;75.02
27210;BME280;14721;42.668;23.386;2023-05-10T11:13:48;95631.16;;;12.74;75.26
27210;BME280;14721;42.668;23.386;2023-05-10T11:16:19;95615.75;;;12.54;72.16
27210;BME280;14721;42.668;23.386;2023-05-10T11:19:12;95628.09;;;12.22;72.14
27210;BME280;14721;42.668;23.386;2023-05-10T11:21:49;95618.09;;;12.24;73.27
27210;BME280;14721;42.668;23.386;2023-05-10T11:24:17;95611.06;;;12.34;73.17
27210;BME280;14721;42.668;23.386;2023-05-10T11:26:43;95637.94;;;12.21;72.23
27210;BME280;14721;42.668;23.386;2023-05-10T11:29:12;95633.78;;;11.94;72.40
27210;BME280;14721;42.668;23.386;2023-05-10T11:31:45;95630.22;;;11.82;73.90
27210;BME280;14721;42.668;23.386;2023-05-10T11:34:12;95628.72;;;11.78;73.77
27210;BME280;14721;42.668;23.386;2023-05-10T11:36:39;95630.50;;;11.90;74.67
27210;BME280;14721;42.668;23.386;2023-05-10T11:39:05;95620.69;;;12.02;74.13
27210;BME280;14721;42.668;23.386;2023-05-10T11:41:31;95623.19;;;12.16;73.96
27210;BME280;14721;42.668;23.386;2023-05-10T11:43:58;95619.81;;;12.25;74.05
27210;BME280;14721;42.668;23.386;2023-05-10T11:46:26;95621.69;;;12.46;72.87
27210;BME280;14721;42.668;23.386;2023-05-10T11:48:54;95617.19;;;12.47;73.17
27210;BME280;14721;42.668;23.386;2023-05-10T11:51:24;95616.72;;;12.53;72.98
27210;BME280;14721;42.668;23.386;2023-05-10T11:53:52;95624.47;;;12.45;72.30
27210;BME280;14721;42.668;23.386;2023-05-10T11:56:18;95620.50;;;12.61;73.36
27210;BME280;14721;42.668;23.386;2023-05-10T11:58:52;95624.31;;;12.70;72.38
27210;BME280;14721;42.668;23.386;2023-05-10T12:01:18;95620.41;;;12.74;72.94
27210;BME280;14721;42.668;23.386;2023-05-10T12:03:44;95618.50;;;12.98;75.15
27210;BME280;14721;42.668;23.386;2023-05-10T12:06:10;95625.34;;;13.02;75.61
27210;BME280;14721;42.668;23.386;2023-05-10T12:08:45;95611.19;;;13.00;74.28
27210;BME280;14721;42.668;23.386;2023-05-10T12:11:12;95616.75;;;12.75;73.71
27210;BME280;14721;42.668;23.386;2023-05-10T12:13:43;95605.31;;;12.95;74.06
27210;BME280;14721;42.668;23.386;2023-05-10T12:16:21;95605.84;;;13.00;75.12
27210;BME280;14721;42.668;23.386;2023-05-10T12:18:51;95614.81;;;12.99;73.06
27210;BME280;14721;42.668;23.386;2023-05-10T12:21:18;95608.50;;;12.89;72.82
27210;BME280;14721;42.668;23.386;2023-05-10T12:23:46;95609.94;;;12.93;73.95
27210;BME280;14721;42.668;23.386;2023-05-10T12:26:12;95603.88;;;13.02;73.27
27210;BME280;14721;42.668;23.386;2023-05-10T12:28:38;95603.78;;;13.03;72.53
27210;BME280;14721;42.668;23.386;2023-05-10T12:31:05;95588.66;;;13.02;72.97
27210;BME280;14721;42.668;23.386;2023-05-10T12:33:42;95600.22;;;12.92;72.50
27210;BME280;14721;42.668;23.386;2023-05-10T12:36:09;95592.56;;;13.09;74.93
27210;BME280;14721;42.668;23.386;2023-05-10T12:38:37;95596.31;;;13.18;73.32
27210;BME280;14721;42.668;23.386;2023-05-10T12:41:16;95582.69;;;13.10;73.31
27210;BME280;14721;42.668;23.386;2023-05-10T12:43:44;95591.31;;;13.24;73.41
27210;BME280;14721;42.668;23.386;2023-05-10T12:46:14;95584.88;;;13.16;71.29
27210;BME280;14721;42.668;23.386;2023-05-10T12:48:41;95581.31;;;13.04;72.42
27210;BME280;14721;42.668;23.386;2023-05-10T12:51:08;95585.69;;;12.94;73.38
27210;BME280;14721;42.668;23.386;2023-05-10T12:53:35;95577.75;;;12.93;73.76
27210;BME280;14721;42.668;23.386;2023-05-10T12:56:01;95584.34;;;12.78;72.39
27210;BME280;14721;42.668;23.386;2023-05-10T12:58:27;95580.91;;;12.65;73.81
27210;BME280;14721;42.668;23.386;2023-05-10T13:00:52;95575.19;;;12.47;74.26
27210;BME280;14721;42.668;23.386;2023-05-10T13:03:18;95576.63;;;12.51;74.82
27210;BME280;14721;42.668;23.386;2023-05-10T13:05:44;95570.28;;;12.52;74.42
27210;BME280;14721;42.668;23.386;2023-05-10T13:08:09;95578.81;;;12.46;74.43
27210;BME280;14721;42.668;23.386;2023-05-10T13:10:35;95560.88;;;12.36;74.17
27210;BME280;14721;42.668;23.386;2023-05-10T13:13:00;95563.56;;;12.25;74.87
27210;BME280;14721;42.668;23.386;2023-05-10T13:15:26;95566.94;;;12.27;75.08
27210;BME280;14721;42.668;23.386;2023-05-10T13:17:53;95569.16;;;12.22;75.16
27210;BME280;14721;42.668;23.386;2023-05-10T13:20:18;95554.13;;;12.08;75.15
27210;BME280;14721;42.668;23.386;2023-05-10T13:22:44;95565.09;;;12.16;75.37
27210;BME280;14721;42.668;23.386;2023-05-10T13:25:13;95564.53;;;12.35;75.08
27210;BME280;14721;42.668;23.386;2023-05-10T13:27:41;95552.47;;;12.29;74.30
27210;BME280;14721;42.668;23.386;2023-05-10T13:30:09;95545.50;;;12.16;74.57